Terminal Aerodrome Forecast
Issued by NWS Green Bay, WI

Home | Current Version | Previous Version | Graphics & Text | Print | Product List | Glossary On
Versions: 1 2 3 4 5 6 7 8 9 10 11 12 13 14 15 16 17 18 19 20 21 22 23 24 25 26 27 28 29 30 31 32
561
FTUS43 KGRB 301057 AAB
TAFGRB
TAF AMD
KGRB 301057Z 3011/0106 24003KT P6SM SCT040 SCT080
      TEMPO 3011/3012 5SM BR BKN040
     FM301200 VRB03KT P6SM BKN040
     FM301600 23005KT P6SM BKN028 OVC040
     FM302300 22004KT 4SM -RA BKN015 OVC025=

USA.gov is the U.S. government's official web portal to all federal, state and local government web resources and services.